Time;durP1;ratioP1;P1;durP2;ratioP2;P2;SDS_P1;SDS_P2;PMS_P1;PMS_P2;Temp;Humidity;BMP_temperature;BMP_pressure;BME280_temperature;BME280_humidity;BME280_pressure;Samples;Min_cycle;Max_cycle;Signal;HPM_P1;HPM_P2
2020/12/18 09:27:34;;;;;;;2.17;0.90;;;9.20;99.90;;;;;;4924321;23;20245;-80
2020/12/18 09:30:02;;;;;;;3.13;0.77;;;9.30;99.90;;;;;;4916698;29;20237;-80
2020/12/18 09:32:29;;;;;;;1.53;0.80;;;9.30;99.90;;;;;;4912060;29;20214;-79
2020/12/18 09:34:55;;;;;;;2.40;1.00;;;9.30;99.90;;;;;;4914939;29;20316;-80
2020/12/18 09:37:21;;;;;;;2.30;1.00;;;9.30;99.90;;;;;;4918018;29;20222;-76
2020/12/18 09:39:48;;;;;;;2.77;1.00;;;9.40;99.90;;;;;;4919690;29;20214;-76
2020/12/18 09:42:14;;;;;;;4.00;1.10;;;9.40;99.90;;;;;;4895219;29;20211;-75
2020/12/18 09:44:41;;;;;;;2.57;1.20;;;9.50;99.90;;;;;;4881153;29;20737;-77
2020/12/18 09:47:07;;;;;;;3.57;1.33;;;9.50;99.90;;;;;;4882354;29;20689;-76
2020/12/18 09:49:33;;;;;;;1.37;0.90;;;9.60;99.90;;;;;;4882672;29;20238;-73
2020/12/18 09:52:00;;;;;;;4.20;1.00;;;9.60;99.90;;;;;;4884686;29;20264;-72
2020/12/18 09:54:26;;;;;;;1.70;0.83;;;9.70;99.90;;;;;;4887576;29;20267;-73
2020/12/18 09:56:53;;;;;;;2.73;0.97;;;9.80;99.90;;;;;;4882890;29;20222;-74
2020/12/18 09:59:19;;;;;;;6.57;0.90;;;9.80;99.90;;;;;;4890778;29;20238;-73
2020/12/18 10:01:51;;;;;;;4.13;0.90;;;9.90;99.90;;;;;;4901214;29;20534;-73
2020/12/18 10:04:17;;;;;;;2.07;0.80;;;9.90;99.90;;;;;;4899607;29;20226;-72
2020/12/18 10:06:43;;;;;;;2.87;0.70;;;9.90;99.90;;;;;;4889022;29;20678;-73
2020/12/18 10:09:10;;;;;;;2.50;0.87;;;10.00;99.90;;;;;;4888297;29;20226;-74
2020/12/18 10:11:36;;;;;;;2.43;0.90;;;10.00;99.90;;;;;;4901005;29;20688;-70
2020/12/18 10:14:02;;;;;;;3.87;0.90;;;10.00;99.90;;;;;;4899306;29;20233;-74
2020/12/18 10:16:29;;;;;;;1.60;0.80;;;10.10;99.90;;;;;;4900960;29;20582;-70
2020/12/18 10:18:57;;;;;;;3.80;0.60;;;10.20;99.90;;;;;;4893981;29;20203;-74
2020/12/18 10:21:23;;;;;;;2.00;0.70;;;10.20;99.90;;;;;;4882333;29;20355;-84
2020/12/18 10:23:50;;;;;;;1.60;0.50;;;10.20;99.90;;;;;;4893491;29;20521;-72
2020/12/18 10:26:18;;;;;;;3.43;0.80;;;10.30;99.90;;;;;;4900090;29;20214;-73
2020/12/18 10:28:45;;;;;;;1.23;0.70;;;10.40;99.90;;;;;;4894515;29;20246;-73
2020/12/18 10:31:11;;;;;;;1.97;0.80;;;10.30;99.90;;;;;;4898236;29;20203;-72
2020/12/18 10:33:38;;;;;;;1.60;0.40;;;10.50;99.90;;;;;;4895416;29;20230;-73
2020/12/18 10:36:05;;;;;;;1.70;0.80;;;10.40;99.90;;;;;;4885476;29;20211;-71
2020/12/18 10:38:31;;;;;;;1.00;0.50;;;10.40;99.90;;;;;;4889624;29;20578;-71
2020/12/18 10:40:57;;;;;;;0.60;0.37;;;10.40;99.90;;;;;;4881318;29;20203;-71
2020/12/18 10:43:23;;;;;;;1.37;0.80;;;10.40;99.90;;;;;;4894042;29;20230;-71
2020/12/18 10:45:50;;;;;;;0.87;0.50;;;10.40;99.90;;;;;;4887421;29;20208;-72
2020/12/18 10:48:17;;;;;;;2.13;0.67;;;10.50;99.90;;;;;;4899118;29;20217;-70
2020/12/18 10:50:43;;;;;;;2.00;0.87;;;10.50;99.90;;;;;;4899172;29;20658;-71
2020/12/18 10:53:10;;;;;;;1.70;0.67;;;10.60;99.90;;;;;;4896365;29;20207;-71
2020/12/18 10:55:36;;;;;;;1.10;0.60;;;10.60;99.90;;;;;;4881255;29;20219;-69
2020/12/18 10:58:02;;;;;;;2.43;0.90;;;10.60;99.90;;;;;;4882200;29;20558;-72
2020/12/18 11:00:29;;;;;;;1.20;0.70;;;10.60;99.90;;;;;;4880904;29;20211;-74
2020/12/18 11:02:55;;;;;;;2.77;1.27;;;10.60;99.90;;;;;;4884436;29;20215;-73
2020/12/18 11:05:21;;;;;;;2.27;0.60;;;10.70;99.90;;;;;;4880796;29;20207;-72
2020/12/18 11:07:51;;;;;;;1.10;0.60;;;10.70;99.90;;;;;;4881824;29;20259;-74
2020/12/18 11:10:18;;;;;;;2.20;0.60;;;10.70;99.90;;;;;;4881169;29;20234;-73
2020/12/18 11:12:44;;;;;;;0.70;0.53;;;10.80;99.90;;;;;;4882494;29;20211;-74
2020/12/18 11:15:11;;;;;;;2.23;0.70;;;10.80;99.90;;;;;;4880662;29;20564;-74
2020/12/18 11:17:37;;;;;;;5.17;1.17;;;10.80;99.90;;;;;;4881584;29;20619;-72
2020/12/18 11:20:04;;;;;;;0.90;0.60;;;10.80;99.90;;;;;;4881837;29;20219;-72
2020/12/18 11:22:30;;;;;;;1.33;0.57;;;10.90;99.90;;;;;;4889404;29;20211;-72
2020/12/18 11:24:56;;;;;;;0.77;0.47;;;11.00;99.90;;;;;;4883986;29;20235;-72
2020/12/18 11:27:23;;;;;;;1.53;0.93;;;11.00;99.90;;;;;;4881402;29;20215;-72
2020/12/18 11:29:49;;;;;;;1.47;0.50;;;11.00;99.90;;;;;;4883164;29;20241;-71
2020/12/18 11:32:17;;;;;;;1.23;0.50;;;11.00;99.90;;;;;;4898778;29;20229;-72
2020/12/18 11:34:43;;;;;;;0.67;0.47;;;11.00;99.90;;;;;;4888692;29;20227;-71
2020/12/18 11:37:09;;;;;;;0.83;0.50;;;11.00;99.90;;;;;;4895323;29;20577;-72
2020/12/18 11:39:35;;;;;;;1.23;0.50;;;11.10;99.90;;;;;;4899270;29;20218;-72
2020/12/18 11:42:02;;;;;;;2.10;0.50;;;11.00;99.90;;;;;;4898642;29;20219;-72
2020/12/18 11:44:29;;;;;;;0.67;0.50;;;11.10;99.90;;;;;;4898163;29;20278;-73
2020/12/18 11:46:55;;;;;;;3.73;0.40;;;11.10;99.90;;;;;;4899445;29;20207;-74
2020/12/18 11:49:21;;;;;;;2.20;0.70;;;11.10;99.90;;;;;;4898985;29;20246;-74
2020/12/18 11:51:47;;;;;;;0.97;0.33;;;11.10;99.90;;;;;;4898225;29;20243;-74
2020/12/18 11:54:13;;;;;;;0.80;0.60;;;11.20;99.90;;;;;;4898361;29;20235;-73
2020/12/18 11:56:40;;;;;;;3.27;0.80;;;11.20;99.90;;;;;;4899062;29;20574;-75
2020/12/18 11:59:06;;;;;;;1.40;0.43;;;11.20;99.90;;;;;;4898094;29;20215;-74
2020/12/18 12:01:33;;;;;;;3.97;0.40;;;11.20;99.90;;;;;;4898914;29;20210;-74
2020/12/18 12:03:59;;;;;;;2.70;0.50;;;11.20;99.90;;;;;;4898740;29;20235;-75
2020/12/18 12:06:25;;;;;;;1.20;0.37;;;11.30;99.90;;;;;;4898264;29;20214;-74
2020/12/18 12:08:52;;;;;;;1.23;0.40;;;11.40;99.90;;;;;;4898365;29;20235;-75
2020/12/18 12:11:19;;;;;;;0.60;0.30;;;11.40;99.90;;;;;;4898191;29;20215;-75
2020/12/18 12:13:45;;;;;;;2.93;0.40;;;11.40;99.90;;;;;;4897694;29;20230;-73
2020/12/18 12:16:13;;;;;;;1.47;0.40;;;11.50;99.90;;;;;;4898558;29;20321;-75
2020/12/18 12:18:41;;;;;;;1.03;0.33;;;11.40;99.90;;;;;;4898305;29;20269;-76
2020/12/18 12:21:07;;;;;;;0.43;0.27;;;11.50;99.90;;;;;;4897590;29;20217;-76
2020/12/18 12:23:33;;;;;;;1.50;0.37;;;11.50;99.90;;;;;;4898009;29;20732;-72
2020/12/18 12:25:59;;;;;;;1.10;0.60;;;11.40;99.90;;;;;;4898563;29;20206;-74
2020/12/18 12:28:25;;;;;;;0.97;0.60;;;11.50;99.90;;;;;;4897539;29;20700;-73
2020/12/18 12:30:52;;;;;;;0.70;0.30;;;11.50;99.90;;;;;;4898404;29;20210;-73
2020/12/18 12:33:18;;;;;;;0.23;0.20;;;11.60;99.90;;;;;;4898006;29;20257;-74
2020/12/18 12:35:45;;;;;;;2.57;0.40;;;11.50;99.90;;;;;;4897525;29;20265;-73
2020/12/18 12:38:12;;;;;;;0.60;0.40;;;11.60;99.90;;;;;;4898258;29;20234;-74
2020/12/18 12:40:39;;;;;;;0.50;0.30;;;11.60;99.90;;;;;;4897563;29;20358;-72
2020/12/18 12:43:05;;;;;;;0.57;0.30;;;11.70;99.90;;;;;;4896670;29;20214;-74
2020/12/18 12:45:31;;;;;;;3.80;0.40;;;11.60;99.90;;;;;;4898147;29;20217;-74
2020/12/18 12:47:57;;;;;;;1.30;0.40;;;11.70;99.90;;;;;;4898475;29;20511;-73
2020/12/18 12:50:23;;;;;;;0.73;0.33;;;11.70;99.90;;;;;;4897216;29;20290;-73
2020/12/18 12:52:50;;;;;;;1.90;0.20;;;11.70;99.90;;;;;;4897443;29;20678;-74
2020/12/18 12:55:17;;;;;;;3.03;0.83;;;11.80;99.90;;;;;;4897867;29;20733;-74
2020/12/18 12:57:43;;;;;;;0.57;0.30;;;11.80;99.90;;;;;;4897706;29;20730;-72
2020/12/18 13:00:09;;;;;;;0.63;0.30;;;11.80;99.90;;;;;;4899058;29;20234;-75
2020/12/18 13:02:35;;;;;;;0.57;0.30;;;11.80;99.90;;;;;;4898232;29;20221;-75
2020/12/18 13:05:01;;;;;;;1.10;0.50;;;11.90;99.90;;;;;;4897786;29;20262;-74
2020/12/18 13:07:29;;;;;;;1.97;0.70;;;11.90;99.90;;;;;;4897457;29;20214;-74
2020/12/18 13:09:56;;;;;;;2.10;0.40;;;11.90;99.90;;;;;;4897999;29;20238;-75
2020/12/18 13:12:24;;;;;;;0.93;0.40;;;11.90;99.90;;;;;;4896448;29;20221;-74
2020/12/18 13:14:50;;;;;;;2.33;0.60;;;12.00;99.90;;;;;;4897533;29;20230;-75
2020/12/18 13:17:16;;;;;;;1.83;0.30;;;12.00;99.90;;;;;;4897774;29;20221;-74
2020/12/18 13:19:43;;;;;;;0.93;0.33;;;12.00;99.90;;;;;;4897150;29;20689;-71
2020/12/18 13:22:09;;;;;;;0.80;0.50;;;12.00;99.90;;;;;;4897692;29;20207;-77
2020/12/18 13:24:35;;;;;;;1.30;0.30;;;12.00;99.90;;;;;;4897785;29;20610;-71
2020/12/18 13:27:02;;;;;;;1.60;0.40;;;12.00;99.90;;;;;;4897025;29;20217;-71
2020/12/18 13:29:28;;;;;;;1.63;0.50;;;12.00;99.90;;;;;;4897493;29;20238;-70
2020/12/18 13:31:54;;;;;;;1.10;0.23;;;12.10;99.90;;;;;;4896526;29;20569;-78
2020/12/18 13:34:21;;;;;;;0.70;0.20;;;12.00;99.90;;;;;;4896708;29;20238;-77
2020/12/18 13:36:47;;;;;;;1.70;0.37;;;12.00;99.90;;;;;;4897827;29;20210;-78
2020/12/18 13:39:13;;;;;;;0.90;0.30;;;12.00;99.90;;;;;;4897838;29;20567;-79
2020/12/18 13:41:39;;;;;;;0.50;0.20;;;12.00;99.90;;;;;;4897834;29;20210;-77
2020/12/18 13:44:06;;;;;;;1.43;0.50;;;12.00;99.90;;;;;;4897470;29;20313;-79
2020/12/18 13:46:34;;;;;;;1.37;0.33;;;12.00;99.90;;;;;;4897459;29;20551;-78
2020/12/18 13:49:00;;;;;;;0.60;0.30;;;12.00;99.90;;;;;;4897753;29;20245;-76
2020/12/18 13:51:26;;;;;;;0.67;0.23;;;12.00;99.90;;;;;;4897313;29;20665;-78
2020/12/18 13:53:52;;;;;;;0.30;0.20;;;11.90;99.90;;;;;;4896713;29;20598;-78
2020/12/18 13:56:19;;;;;;;2.83;0.60;;;11.80;99.90;;;;;;4897365;29;20215;-79
2020/12/18 13:58:45;;;;;;;1.20;0.37;;;11.90;99.90;;;;;;4896396;29;20215;-78
2020/12/18 14:01:16;;;;;;;0.70;0.20;;;11.90;99.90;;;;;;4897844;29;20240;-72
2020/12/18 14:03:42;;;;;;;3.37;0.40;;;11.90;99.90;;;;;;4898146;29;20365;-80
2020/12/18 14:06:08;;;;;;;0.63;0.40;;;11.90;99.90;;;;;;4897988;29;20210;-79
2020/12/18 14:08:35;;;;;;;1.43;0.40;;;12.00;99.90;;;;;;4898027;29;20214;-79
2020/12/18 14:11:02;;;;;;;0.20;0.10;;;12.00;99.90;;;;;;4897896;29;20207;-77
2020/12/18 14:13:28;;;;;;;0.43;0.27;;;12.00;99.90;;;;;;4897854;29;20234;-79
2020/12/18 14:15:54;;;;;;;0.70;0.37;;;12.00;99.90;;;;;;4898186;29;20619;-78
2020/12/18 14:18:21;;;;;;;1.03;0.30;;;12.00;99.90;;;;;;4898127;29;20210;-80
2020/12/18 14:20:47;;;;;;;0.57;0.30;;;12.00;99.90;;;;;;4898105;29;20214;-79
2020/12/18 14:23:15;;;;;;;0.53;0.40;;;11.90;99.90;;;;;;4899786;29;20220;-78
2020/12/18 14:25:41;;;;;;;0.40;0.20;;;11.90;99.90;;;;;;4901219;29;20278;-80
2020/12/18 14:28:07;;;;;;;0.63;0.33;;;12.00;99.90;;;;;;4900926;29;20222;-80
2020/12/18 14:30:33;;;;;;;1.17;0.40;;;12.00;99.90;;;;;;4900891;29;20234;-80
2020/12/18 14:32:59;;;;;;;0.50;0.30;;;12.00;99.90;;;;;;4901124;29;20214;-79
2020/12/18 14:35:26;;;;;;;1.07;0.50;;;12.10;99.90;;;;;;4901339;29;20214;-79
2020/12/18 14:37:53;;;;;;;1.20;0.40;;;12.00;99.90;;;;;;4900952;29;20254;-80
2020/12/18 14:40:19;;;;;;;1.13;0.50;;;12.00;99.90;;;;;;4900940;29;20219;-79
2020/12/18 14:42:45;;;;;;;3.70;0.63;;;11.90;99.90;;;;;;4900843;29;20269;-80
2020/12/18 14:45:11;;;;;;;0.53;0.37;;;12.00;99.90;;;;;;4900758;29;20705;-79
2020/12/18 14:47:37;;;;;;;3.70;0.63;;;11.90;99.90;;;;;;4900550;29;20210;-80
2020/12/18 14:50:04;;;;;;;4.00;0.47;;;11.80;99.90;;;;;;4900467;29;20455;-79
2020/12/18 14:52:31;;;;;;;0.40;0.40;;;11.80;99.90;;;;;;4900592;29;20253;-80
2020/12/18 14:54:57;;;;;;;0.80;0.50;;;11.80;99.90;;;;;;4900282;29;20245;-79
2020/12/18 14:57:23;;;;;;;1.07;0.60;;;11.80;99.90;;;;;;4900170;29;20211;-79
2020/12/18 14:59:50;;;;;;;0.60;0.30;;;11.80;99.90;;;;;;4900633;29;20211;-80
2020/12/18 15:02:16;;;;;;;0.87;0.53;;;11.80;99.90;;;;;;4900149;29;20218;-80
2020/12/18 15:04:42;;;;;;;0.63;0.40;;;11.80;99.90;;;;;;4900334;29;20234;-80
2020/12/18 15:07:09;;;;;;;1.83;0.30;;;11.70;99.90;;;;;;4900331;29;20254;-80
2020/12/18 15:09:36;;;;;;;0.87;0.40;;;11.70;99.90;;;;;;4900096;29;20234;-80
2020/12/18 15:12:02;;;;;;;0.37;0.20;;;11.70;99.90;;;;;;4900328;29;20206;-80
2020/12/18 15:14:28;;;;;;;1.03;0.40;;;11.60;99.90;;;;;;4900268;29;20582;-79
2020/12/18 15:16:55;;;;;;;2.33;0.50;;;11.50;99.90;;;;;;4900403;29;20221;-80
2020/12/18 15:19:21;;;;;;;1.43;0.70;;;11.50;99.90;;;;;;4900460;29;20281;-80
2020/12/18 15:21:47;;;;;;;1.90;0.60;;;11.40;99.90;;;;;;4900123;29;20242;-80
2020/12/18 15:24:13;;;;;;;1.70;0.47;;;11.40;99.90;;;;;;4900784;29;20241;-79
2020/12/18 15:26:40;;;;;;;1.20;0.60;;;11.40;99.90;;;;;;4901292;29;20211;-79
2020/12/18 15:29:06;;;;;;;0.80;0.50;;;11.30;99.90;;;;;;4905165;29;20242;-79
2020/12/18 15:31:33;;;;;;;1.73;0.60;;;11.20;99.90;;;;;;4905524;29;20210;-80
2020/12/18 15:33:59;;;;;;;0.50;0.40;;;11.20;99.90;;;;;;4905016;29;20231;-79
2020/12/18 15:36:26;;;;;;;1.17;0.63;;;11.20;99.90;;;;;;4905330;29;20214;-76
2020/12/18 15:38:52;;;;;;;4.47;1.00;;;11.10;99.90;;;;;;4900475;29;20237;-81
2020/12/18 15:41:20;;;;;;;2.30;0.67;;;11.10;99.90;;;;;;4892565;29;20259;-80
2020/12/18 15:43:47;;;;;;;0.67;0.40;;;11.00;99.90;;;;;;4879099;29;20235;-77
2020/12/18 15:46:17;;;;;;;0.50;0.33;;;11.10;99.90;;;;;;4878692;29;20215;-76
2020/12/18 15:48:45;;;;;;;2.20;1.47;;;11.10;99.90;;;;;;4885323;29;20214;-81
2020/12/18 15:51:14;;;;;;;1.40;0.60;;;11.00;99.90;;;;;;4898471;29;20545;-75
2020/12/18 15:53:40;;;;;;;0.53;0.33;;;11.00;99.90;;;;;;4896935;29;20234;-76
2020/12/18 15:56:12;;;;;;;0.87;0.60;;;10.90;99.90;;;;;;4897656;29;20210;-77
2020/12/18 15:58:39;;;;;;;1.00;0.63;;;10.80;99.90;;;;;;4892536;29;20204;-76
2020/12/18 16:01:06;;;;;;;2.70;1.00;;;10.80;99.90;;;;;;4881947;29;20206;-71
2020/12/18 16:03:32;;;;;;;0.70;0.40;;;10.80;99.90;;;;;;4878782;29;20239;-71
2020/12/18 16:05:58;;;;;;;0.77;0.33;;;10.80;99.90;;;;;;4878837;29;20218;-74
2020/12/18 16:08:25;;;;;;;2.00;0.50;;;10.80;99.90;;;;;;4881881;29;20890;-73
2020/12/18 16:10:56;;;;;;;2.83;0.70;;;10.80;99.90;;;;;;4908187;29;20238;-75
2020/12/18 16:13:23;;;;;;;3.67;0.60;;;10.70;99.90;;;;;;4878567;29;20242;-78
2020/12/18 16:15:49;;;;;;;0.63;0.40;;;10.70;99.90;;;;;;4878583;29;20211;-74
2020/12/18 16:18:18;;;;;;;1.07;0.50;;;10.70;99.90;;;;;;4878208;29;20218;-75
2020/12/18 16:20:44;;;;;;;0.80;0.40;;;10.70;99.90;;;;;;4880986;29;20642;-72
2020/12/18 16:23:11;;;;;;;1.30;0.60;;;10.60;99.90;;;;;;4878975;29;20685;-79
2020/12/18 16:25:37;;;;;;;1.30;0.70;;;10.60;99.90;;;;;;4877832;29;20219;-72
2020/12/18 16:28:04;;;;;;;0.90;0.60;;;10.50;99.90;;;;;;4878749;29;20247;-79
2020/12/18 16:30:30;;;;;;;2.77;0.90;;;10.50;99.90;;;;;;4896027;29;20246;-77
2020/12/18 16:32:57;;;;;;;1.03;0.70;;;10.40;99.90;;;;;;4884732;29;20211;-76
2020/12/18 16:35:24;;;;;;;2.57;1.00;;;10.40;99.90;;;;;;4878645;29;20231;-73
2020/12/18 16:37:50;;;;;;;3.57;0.80;;;10.30;99.90;;;;;;4894455;29;20211;-76
2020/12/18 16:40:17;;;;;;;2.77;0.97;;;10.30;99.90;;;;;;4896482;29;20218;-77
2020/12/18 16:42:44;;;;;;;2.93;0.77;;;10.30;99.90;;;;;;4896739;29;20225;-79
2020/12/18 16:45:10;;;;;;;3.30;1.00;;;10.30;99.90;;;;;;4896123;29;20230;-77
2020/12/18 16:47:36;;;;;;;1.67;0.80;;;10.30;99.90;;;;;;4895899;29;20206;-79
2020/12/18 16:50:03;;;;;;;1.83;0.90;;;10.30;99.90;;;;;;4896471;29;20306;-78
2020/12/18 16:52:32;;;;;;;1.17;0.73;;;10.20;99.90;;;;;;4896425;29;20218;-72
2020/12/18 16:54:58;;;;;;;3.00;0.90;;;10.30;99.90;;;;;;4896504;29;20234;-72
2020/12/18 16:57:24;;;;;;;1.43;1.03;;;10.20;99.90;;;;;;4896719;29;20214;-73
2020/12/18 16:59:51;;;;;;;2.77;1.13;;;10.20;99.90;;;;;;4896735;29;20217;-79
2020/12/18 17:02:17;;;;;;;4.77;1.23;;;10.10;99.90;;;;;;4896959;29;20782;-75
2020/12/18 17:04:43;;;;;;;2.33;1.20;;;10.20;99.90;;;;;;4903063;29;20664;-74
2020/12/18 17:07:10;;;;;;;2.63;1.10;;;10.20;99.90;;;;;;4885873;29;20236;-71
2020/12/18 17:09:37;;;;;;;1.30;1.00;;;10.20;99.90;;;;;;4886170;29;20239;-74
2020/12/18 17:12:03;;;;;;;2.67;1.20;;;10.20;99.90;;;;;;4890847;29;20226;-76
2020/12/18 17:14:30;;;;;;;3.67;1.87;;;10.10;99.90;;;;;;4896056;29;20227;-79
2020/12/18 17:16:56;;;;;;;2.17;1.20;;;10.10;99.90;;;;;;4897026;29;20214;-74
2020/12/18 17:19:23;;;;;;;1.60;1.17;;;10.00;99.90;;;;;;4896080;29;20210;-80
2020/12/18 17:21:49;;;;;;;4.40;1.40;;;10.00;99.90;;;;;;4895942;29;20214;-73
2020/12/18 17:24:17;;;;;;;2.07;1.13;;;10.00;99.90;;;;;;4896480;29;20234;-73
2020/12/18 17:26:45;;;;;;;2.20;1.40;;;10.00;99.90;;;;;;4896572;29;20206;-75
2020/12/18 17:29:12;;;;;;;3.00;1.30;;;10.00;99.90;;;;;;4895069;29;20297;-76
2020/12/18 17:31:41;;;;;;;2.83;1.63;;;10.00;99.90;;;;;;4895231;29;20214;-73
2020/12/18 17:34:08;;;;;;;4.80;1.50;;;9.90;99.90;;;;;;4885976;29;20267;-73
2020/12/18 17:36:35;;;;;;;2.13;1.03;;;10.00;99.90;;;;;;4896077;29;20214;-75
2020/12/18 17:39:01;;;;;;;3.53;1.30;;;9.90;99.90;;;;;;4892116;29;20674;-72
2020/12/18 17:41:27;;;;;;;2.43;1.17;;;9.90;99.90;;;;;;4884972;29;20254;-73
2020/12/18 17:43:55;;;;;;;4.20;1.20;;;9.90;99.90;;;;;;4877174;29;20603;-74
2020/12/18 17:46:21;;;;;;;4.80;1.40;;;9.90;99.90;;;;;;4877418;29;20301;-72
2020/12/18 17:48:48;;;;;;;2.73;1.60;;;9.90;99.90;;;;;;4883615;29;20688;-73
2020/12/18 17:51:14;;;;;;;1.67;1.10;;;9.90;99.90;;;;;;4896043;29;20234;-73
2020/12/18 17:53:41;;;;;;;2.27;1.40;;;9.80;99.90;;;;;;4895407;29;20575;-75
2020/12/18 17:56:10;;;;;;;1.83;1.20;;;9.80;99.90;;;;;;4896211;29;20237;-77
2020/12/18 17:58:37;;;;;;;4.50;1.60;;;9.80;99.90;;;;;;4898053;29;20258;-71
2020/12/18 18:01:04;;;;;;;3.07;1.40;;;9.80;99.90;;;;;;4897702;29;20242;-71
2020/12/18 18:03:30;;;;;;;2.93;1.53;;;9.80;99.90;;;;;;4899460;29;20237;-70
2020/12/18 18:05:57;;;;;;;2.07;1.30;;;9.80;99.90;;;;;;4900191;29;20226;-70
2020/12/18 18:08:23;;;;;;;2.73;1.40;;;9.80;99.90;;;;;;4899082;29;20293;-73
2020/12/18 18:10:50;;;;;;;2.80;1.30;;;9.70;99.90;;;;;;4899186;29;20234;-73
2020/12/18 18:13:16;;;;;;;2.73;1.43;;;9.70;99.90;;;;;;4901314;29;20783;-75
2020/12/18 18:15:42;;;;;;;2.87;1.10;;;9.80;99.90;;;;;;4917951;29;20210;-72
2020/12/18 18:18:10;;;;;;;3.10;1.13;;;9.70;99.90;;;;;;4915337;29;20213;-71
2020/12/18 18:20:37;;;;;;;3.27;1.40;;;9.70;99.90;;;;;;4881039;29;20222;-71
2020/12/18 18:23:03;;;;;;;3.17;1.67;;;9.60;99.90;;;;;;4880493;29;20218;-70
2020/12/18 18:25:29;;;;;;;2.03;1.40;;;9.60;99.90;;;;;;4881669;29;20218;-71
2020/12/18 18:27:55;;;;;;;2.33;1.30;;;9.70;99.90;;;;;;4881980;29;20234;-71
2020/12/18 18:30:21;;;;;;;3.73;1.50;;;9.70;99.90;;;;;;4881950;29;20246;-71
2020/12/18 18:32:48;;;;;;;3.27;1.57;;;9.60;99.90;;;;;;4882271;29;20207;-71
2020/12/18 18:35:15;;;;;;;2.80;1.60;;;9.70;99.90;;;;;;4882012;29;20235;-71
2020/12/18 18:37:41;;;;;;;3.93;1.53;;;9.70;99.90;;;;;;4882078;29;20207;-71
2020/12/18 18:40:07;;;;;;;3.47;1.70;;;9.60;99.90;;;;;;4881893;29;20219;-71
2020/12/18 18:42:39;;;;;;;3.40;1.70;;;9.60;99.90;;;;;;4881482;29;20218;-71
2020/12/18 18:45:06;;;;;;;2.37;1.37;;;9.50;99.90;;;;;;4881658;29;20718;-71
2020/12/18 18:47:32;;;;;;;4.00;1.70;;;9.50;99.90;;;;;;4882015;29;20239;-72
2020/12/18 18:49:58;;;;;;;3.80;1.90;;;9.50;99.90;;;;;;4881705;29;20243;-72
2020/12/18 18:52:25;;;;;;;4.70;3.00;;;9.50;99.90;;;;;;4881654;29;20543;-72
2020/12/18 18:54:51;;;;;;;6.00;1.63;;;9.40;99.90;;;;;;4881375;29;20238;-72
2020/12/18 18:57:18;;;;;;;6.13;1.83;;;9.40;99.90;;;;;;4881448;29;20604;-72
2020/12/18 18:59:44;;;;;;;4.63;1.77;;;9.40;99.90;;;;;;4881880;29;20211;-72
2020/12/18 19:02:10;;;;;;;4.20;1.90;;;9.30;99.90;;;;;;4881935;29;20566;-72
2020/12/18 19:04:36;;;;;;;2.53;1.80;;;9.30;99.90;;;;;;4881442;29;20234;-72
2020/12/18 19:07:02;;;;;;;5.83;1.83;;;9.30;99.90;;;;;;4881314;29;20212;-72
2020/12/18 19:09:29;;;;;;;3.50;1.70;;;9.20;99.90;;;;;;4880267;29;20238;-72
2020/12/18 19:11:56;;;;;;;4.97;1.93;;;9.30;99.90;;;;;;4881677;29;20215;-72
2020/12/18 19:14:23;;;;;;;6.77;1.87;;;9.30;99.90;;;;;;4881373;29;20238;-72
2020/12/18 19:16:52;;;;;;;3.23;1.83;;;9.30;99.90;;;;;;4881285;29;20207;-72
2020/12/18 19:19:18;;;;;;;5.73;2.07;;;9.30;99.90;;;;;;4881115;29;20247;-72
2020/12/18 19:21:46;;;;;;;5.83;1.87;;;9.30;99.90;;;;;;4881180;29;20211;-73
2020/12/18 19:24:12;;;;;;;2.40;1.90;;;9.30;99.90;;;;;;4881004;29;20703;-72
2020/12/18 19:26:39;;;;;;;3.23;1.60;;;9.20;99.90;;;;;;4888059;29;20325;-72
2020/12/18 19:29:05;;;;;;;3.60;1.37;;;9.20;99.90;;;;;;4907160;29;20225;-71
2020/12/18 19:31:31;;;;;;;3.60;1.80;;;9.20;99.90;;;;;;4918775;29;20209;-69
2020/12/18 19:33:58;;;;;;;2.60;1.80;;;9.20;99.90;;;;;;4918611;29;20234;-69
2020/12/18 19:36:26;;;;;;;5.17;2.37;;;9.20;99.90;;;;;;4917331;29;20728;-71
2020/12/18 19:38:53;;;;;;;2.73;1.50;;;9.20;99.90;;;;;;4896945;29;20671;-70
2020/12/18 19:41:19;;;;;;;2.63;1.73;;;9.30;99.90;;;;;;4896953;29;20221;-70
2020/12/18 19:43:46;;;;;;;4.00;1.73;;;9.20;99.90;;;;;;4897805;29;20234;-68
2020/12/18 19:46:13;;;;;;;6.50;1.90;;;9.20;99.90;;;;;;4899003;29;20551;-68
2020/12/18 19:48:39;;;;;;;3.50;1.83;;;9.30;99.90;;;;;;4892564;29;20203;-70
2020/12/18 19:51:05;;;;;;;2.63;1.40;;;9.20;99.90;;;;;;4888714;29;20588;-69
2020/12/18 19:53:31;;;;;;;6.17;2.00;;;9.20;99.90;;;;;;4888281;29;20787;-69
2020/12/18 19:55:58;;;;;;;3.13;1.60;;;9.20;99.90;;;;;;4898794;29;20214;-70
2020/12/18 19:58:24;;;;;;;2.47;1.60;;;9.20;99.90;;;;;;4898810;29;20206;-70
2020/12/18 20:00:51;;;;;;;2.97;1.83;;;9.20;99.90;;;;;;4899263;29;20285;-70
2020/12/18 20:03:17;;;;;;;3.00;1.60;;;9.20;99.90;;;;;;4899117;29;20226;-71
2020/12/18 20:05:44;;;;;;;3.73;1.83;;;9.20;99.90;;;;;;4899174;29;20261;-69
2020/12/18 20:08:10;;;;;;;3.23;1.50;;;9.20;99.90;;;;;;4899122;29;20210;-71
2020/12/18 20:10:36;;;;;;;3.43;1.80;;;9.20;99.90;;;;;;4898964;29;20246;-70
2020/12/18 20:13:02;;;;;;;2.50;1.67;;;9.30;99.90;;;;;;4888899;29;20211;-69
2020/12/18 20:15:30;;;;;;;3.90;1.50;;;9.30;99.90;;;;;;4880113;29;20218;-69
2020/12/18 20:17:58;;;;;;;3.90;2.07;;;9.30;99.90;;;;;;4879802;29;20713;-70
2020/12/18 20:20:24;;;;;;;5.93;1.80;;;9.30;99.90;;;;;;4879789;29;20685;-69
2020/12/18 20:22:50;;;;;;;4.03;1.83;;;9.30;99.90;;;;;;4880167;29;20215;-70
2020/12/18 20:25:16;;;;;;;6.77;2.20;;;9.20;99.90;;;;;;4879897;29;20741;-70
2020/12/18 20:27:43;;;;;;;2.53;1.60;;;9.20;99.90;;;;;;4879844;29;20230;-69
2020/12/18 20:30:09;;;;;;;3.33;1.90;;;9.20;99.90;;;;;;4879766;29;20239;-69
2020/12/18 20:32:35;;;;;;;3.50;1.80;;;9.20;99.90;;;;;;4879631;29;20234;-69
2020/12/18 20:35:03;;;;;;;3.30;1.70;;;9.20;99.90;;;;;;4879611;29;20235;-70
2020/12/18 20:37:31;;;;;;;4.83;1.60;;;9.20;99.90;;;;;;4879494;29;20215;-70
2020/12/18 20:39:58;;;;;;;3.70;2.00;;;9.10;99.90;;;;;;4879371;29;20219;-69
2020/12/18 20:42:24;;;;;;;4.17;2.10;;;9.20;99.90;;;;;;4879464;29;20207;-69
2020/12/18 20:44:50;;;;;;;3.07;1.80;;;9.10;99.90;;;;;;4879622;29;20235;-69
2020/12/18 20:47:16;;;;;;;2.17;1.57;;;9.10;99.90;;;;;;4879557;29;20267;-69
2020/12/18 20:49:43;;;;;;;3.30;1.90;;;9.10;99.90;;;;;;4879523;29;20244;-69
2020/12/18 20:52:10;;;;;;;2.67;1.90;;;9.10;99.90;;;;;;4879991;29;20222;-70
2020/12/18 20:54:38;;;;;;;3.50;1.93;;;9.00;99.90;;;;;;4879297;29;20231;-70
2020/12/18 20:57:05;;;;;;;3.33;1.70;;;9.00;99.90;;;;;;4879035;29;20679;-71
2020/12/18 20:59:31;;;;;;;4.20;2.00;;;9.00;99.90;;;;;;4879252;29;20226;-68
2020/12/18 21:01:57;;;;;;;4.00;1.57;;;8.90;99.90;;;;;;4879276;29;20211;-69
2020/12/18 21:04:23;;;;;;;3.40;2.13;;;8.90;99.90;;;;;;4879111;29;20235;-69
2020/12/18 21:06:50;;;;;;;3.20;1.90;;;8.90;99.90;;;;;;4879302;29;20207;-69
2020/12/18 21:09:17;;;;;;;2.50;1.33;;;8.90;99.90;;;;;;4879229;29;20269;-70
2020/12/18 21:11:43;;;;;;;3.57;1.73;;;8.90;99.90;;;;;;4879336;29;20222;-69
2020/12/18 21:14:09;;;;;;;2.87;1.40;;;8.90;99.90;;;;;;4879056;29;20599;-70
2020/12/18 21:16:35;;;;;;;4.73;1.70;;;8.90;99.90;;;;;;4878769;29;20211;-69
2020/12/18 21:19:01;;;;;;;3.50;1.93;;;8.90;99.90;;;;;;4879180;29;20563;-70
2020/12/18 21:21:28;;;;;;;4.13;2.13;;;8.80;99.90;;;;;;4878973;29;20207;-69
2020/12/18 21:23:54;;;;;;;2.57;1.83;;;8.80;99.90;;;;;;4879377;29;20623;-69
2020/12/18 21:26:22;;;;;;;3.20;1.80;;;8.80;99.90;;;;;;4879181;29;20212;-69
2020/12/18 21:28:48;;;;;;;4.60;2.17;;;8.80;99.90;;;;;;4878799;29;20246;-69
2020/12/18 21:31:14;;;;;;;2.53;1.60;;;8.80;99.90;;;;;;4878535;29;20243;-69
2020/12/18 21:33:40;;;;;;;6.10;2.00;;;8.70;99.90;;;;;;4881788;29;20235;-69
2020/12/18 21:36:06;;;;;;;2.93;1.77;;;8.70;99.90;;;;;;4883229;29;20210;-69
2020/12/18 21:38:33;;;;;;;7.13;2.20;;;8.70;99.90;;;;;;4882865;29;20222;-69
2020/12/18 21:40:59;;;;;;;2.50;1.83;;;8.70;99.90;;;;;;4882774;29;20667;-69
2020/12/18 21:43:26;;;;;;;3.43;1.70;;;8.60;99.90;;;;;;4882948;29;20235;-70
2020/12/18 21:45:52;;;;;;;6.33;1.97;;;8.60;99.90;;;;;;4883060;29;20223;-69
2020/12/18 21:48:18;;;;;;;4.30;1.93;;;8.70;99.90;;;;;;4882623;29;20222;-70
2020/12/18 21:50:44;;;;;;;4.47;1.97;;;8.70;99.90;;;;;;4882801;29;20239;-70
2020/12/18 21:53:11;;;;;;;3.93;2.10;;;8.60;99.90;;;;;;4882675;29;20251;-69
2020/12/18 21:55:37;;;;;;;2.80;1.77;;;8.60;99.90;;;;;;4882810;29;20272;-70
2020/12/18 21:58:03;;;;;;;4.50;2.17;;;8.60;99.90;;;;;;4882551;29;20215;-70
2020/12/18 22:00:31;;;;;;;3.77;2.10;;;8.60;99.90;;;;;;4882333;29;20215;-70
2020/12/18 22:02:57;;;;;;;3.97;2.00;;;8.60;99.90;;;;;;4882221;29;20211;-70
2020/12/18 22:05:24;;;;;;;2.73;1.60;;;8.60;99.90;;;;;;4882319;29;20215;-69
2020/12/18 22:07:52;;;;;;;3.53;1.90;;;8.60;99.90;;;;;;4882210;29;20223;-69
2020/12/18 22:10:18;;;;;;;5.73;2.13;;;8.60;99.90;;;;;;4882325;29;20583;-70
2020/12/18 22:12:45;;;;;;;3.80;1.87;;;8.60;99.90;;;;;;4882322;29;20219;-71